createdAt,value
2018-03-07T00:00:23.938Z,7.77
2018-03-07T00:01:23.893Z,7.82
2018-03-07T00:02:23.883Z,7.85
2018-03-07T00:03:23.808Z,7.83
2018-03-07T00:04:23.809Z,7.79
2018-03-07T00:05:23.739Z,7.83
2018-03-07T00:06:23.691Z,7.85
2018-03-07T00:07:23.740Z,7.85
2018-03-07T00:08:23.616Z,7.75
2018-03-07T00:09:23.575Z,7.82
2018-03-07T00:10:23.533Z,7.75
2018-03-07T00:11:23.495Z,7.69
2018-03-07T00:12:23.455Z,7.74
2018-03-07T00:13:23.449Z,7.69
2018-03-07T00:14:23.372Z,7.79
2018-03-07T00:15:23.336Z,7.67
2018-03-07T00:16:23.293Z,7.55
2018-03-07T00:17:23.293Z,7.49
2018-03-07T00:18:23.247Z,7.57
2018-03-07T00:19:23.169Z,7.43
2018-03-07T00:20:23.141Z,7.42
2018-03-07T00:21:23.095Z,7.40
2018-03-07T00:22:23.057Z,7.50
2018-03-07T00:23:23.060Z,7.35
2018-03-07T00:24:22.969Z,7.43
2018-03-07T00:25:22.934Z,7.40
2018-03-07T00:26:22.887Z,7.42
2018-03-07T00:27:22.848Z,7.42
2018-03-07T00:28:22.832Z,7.43
2018-03-07T00:29:22.771Z,7.39
2018-03-07T00:30:22.748Z,7.40
2018-03-07T00:31:22.697Z,7.43
2018-03-07T00:32:22.652Z,7.39
2018-03-07T00:33:22.616Z,7.48
2018-03-07T00:34:22.587Z,7.43
2018-03-07T00:35:22.532Z,7.46
2018-03-07T00:36:22.486Z,7.43
2018-03-07T00:37:22.447Z,7.45
2018-03-07T00:38:22.409Z,7.42
2018-03-07T00:39:22.399Z,7.43
2018-03-07T00:40:22.348Z,7.45
2018-03-07T00:41:22.295Z,7.45
2018-03-07T00:42:22.247Z,7.49
2018-03-07T00:43:22.214Z,7.48
2018-03-07T00:44:22.189Z,7.43
2018-03-07T00:45:22.131Z,7.43
2018-03-07T00:46:22.092Z,7.43
2018-03-07T00:47:22.051Z,7.40
2018-03-07T00:48:22.006Z,7.39
2018-03-07T00:49:21.999Z,7.34
2018-03-07T00:50:21.948Z,7.40
2018-03-07T00:51:21.888Z,7.35
2018-03-07T00:52:21.850Z,7.32
2018-03-07T00:53:21.811Z,7.40
2018-03-07T00:54:21.802Z,7.35
2018-03-07T00:55:21.730Z,7.35
2018-03-07T00:56:21.683Z,7.27
2018-03-07T00:57:21.645Z,7.23
2018-03-07T00:58:21.607Z,7.30
2018-03-07T00:59:21.572Z,7.24
2018-03-07T01:00:21.573Z,7.28
2018-03-07T01:01:21.488Z,7.15
2018-03-07T01:02:21.446Z,7.09
2018-03-07T01:03:21.401Z,7.05
2018-03-07T01:04:21.358Z,7.15
2018-03-07T01:05:21.349Z,6.98
2018-03-07T01:06:21.283Z,6.95
2018-03-07T01:07:21.238Z,6.95
2018-03-07T01:08:21.206Z,6.97
2018-03-07T01:09:21.161Z,6.92
2018-03-07T01:10:21.196Z,6.85
2018-03-07T01:11:21.084Z,6.79
2018-03-07T01:12:21.039Z,6.74
2018-03-07T01:13:20.994Z,6.73
2018-03-07T01:14:20.966Z,6.66
2018-03-07T01:15:20.940Z,6.66
2018-03-07T01:16:20.877Z,6.71
2018-03-07T01:17:20.834Z,6.66
2018-03-07T01:18:20.831Z,6.58
2018-03-07T01:19:20.756Z,6.48
2018-03-07T01:20:20.801Z,6.51
2018-03-07T01:21:20.668Z,6.43
2018-03-07T01:22:20.628Z,6.41
2018-03-07T01:23:20.592Z,6.41
2018-03-07T01:24:20.552Z,6.41
2018-03-07T01:25:20.514Z,6.41
2018-03-07T01:26:20.495Z,6.37
2018-03-07T01:27:20.425Z,6.41
2018-03-07T01:28:20.383Z,6.38
2018-03-07T01:29:20.347Z,6.33
2018-03-07T01:30:21.043Z,6.38
2018-03-07T01:31:20.265Z,6.31
2018-03-07T01:32:20.221Z,6.33
2018-03-07T01:33:20.182Z,6.38
2018-03-07T01:34:20.137Z,6.33
2018-03-07T01:35:20.102Z,6.36
2018-03-07T01:36:20.074Z,6.40
2018-03-07T01:37:20.029Z,6.41
2018-03-07T01:38:19.973Z,6.41
2018-03-07T01:39:19.936Z,6.40
2018-03-07T01:40:19.894Z,6.40
2018-03-07T01:41:19.872Z,6.37
2018-03-07T01:42:19.808Z,6.27
2018-03-07T01:43:19.770Z,6.33
2018-03-07T01:44:19.733Z,6.28
2018-03-07T01:45:19.686Z,6.19
2018-03-07T01:46:19.668Z,6.31
2018-03-07T01:47:19.608Z,6.27
2018-03-07T01:48:19.562Z,6.31
2018-03-07T01:49:19.522Z,6.28
2018-03-07T01:50:19.486Z,6.27
2018-03-07T01:51:19.462Z,6.27
2018-03-07T01:52:19.402Z,6.31
2018-03-07T01:53:19.366Z,6.28
2018-03-07T01:54:19.314Z,6.19
2018-03-07T01:55:19.272Z,6.17
2018-03-07T01:56:19.267Z,6.15
2018-03-07T01:57:19.205Z,6.14
2018-03-07T01:58:19.158Z,6.11
2018-03-07T01:59:19.118Z,6.03
2018-03-07T02:00:19.073Z,5.96
2018-03-07T02:01:19.050Z,6.06
2018-03-07T02:02:18.986Z,5.94
2018-03-07T02:03:18.944Z,6.04
2018-03-07T02:04:18.911Z,5.99
2018-03-07T02:05:18.870Z,5.97
2018-03-07T02:06:18.824Z,5.90
2018-03-07T02:07:18.808Z,5.89
2018-03-07T02:08:18.742Z,5.82
2018-03-07T02:09:18.694Z,5.81
2018-03-07T02:10:18.654Z,5.78
2018-03-07T02:11:18.615Z,5.75
2018-03-07T02:12:18.598Z,5.58
2018-03-07T02:13:18.538Z,5.54
2018-03-07T02:14:18.496Z,5.64
2018-03-07T02:15:18.447Z,5.53
2018-03-07T02:16:18.406Z,5.51
2018-03-07T02:17:18.396Z,5.40
2018-03-07T02:18:18.335Z,5.46
2018-03-07T02:19:18.279Z,5.40
2018-03-07T02:20:18.247Z,5.48
2018-03-07T02:21:18.205Z,5.43
2018-03-07T02:22:18.187Z,5.45
2018-03-07T02:23:18.116Z,5.42
2018-03-07T02:24:18.077Z,5.49
2018-03-07T02:25:18.032Z,5.49
2018-03-07T02:26:17.998Z,5.46
2018-03-07T02:27:17.986Z,5.51
2018-03-07T02:28:17.916Z,5.49
2018-03-07T02:29:17.879Z,5.49
2018-03-07T02:30:17.832Z,5.56
2018-03-07T02:31:17.786Z,5.48
2018-03-07T02:32:17.744Z,5.45
2018-03-07T02:33:17.722Z,5.46
2018-03-07T02:34:17.662Z,5.40
2018-03-07T02:35:17.615Z,5.39
2018-03-07T02:36:17.581Z,5.36
2018-03-07T02:37:17.536Z,5.39
2018-03-07T02:38:17.519Z,5.33
2018-03-07T02:39:17.459Z,5.38
2018-03-07T02:40:17.406Z,5.38
2018-03-07T02:41:17.398Z,5.36
2018-03-07T02:42:17.349Z,5.28
2018-03-07T02:43:17.282Z,5.35
2018-03-07T02:44:17.240Z,5.28
2018-03-07T02:45:17.274Z,5.31
2018-03-07T02:46:17.163Z,5.25
2018-03-07T02:47:17.154Z,5.20
2018-03-07T02:48:17.076Z,5.24
2018-03-07T02:49:17.040Z,5.15
2018-03-07T02:50:16.992Z,5.17
2018-03-07T02:51:16.948Z,5.10
2018-03-07T02:52:16.937Z,5.03
2018-03-07T02:53:16.872Z,5.00
2018-03-07T02:54:16.828Z,4.99
2018-03-07T02:55:16.782Z,4.88
2018-03-07T02:56:16.737Z,4.94
2018-03-07T02:57:16.743Z,4.88
2018-03-07T02:58:16.655Z,4.91
2018-03-07T02:59:16.618Z,4.94
2018-03-07T03:00:16.578Z,4.86
2018-03-07T03:01:16.535Z,4.94
2018-03-07T03:02:16.493Z,4.92
2018-03-07T03:03:16.473Z,4.89
2018-03-07T03:04:16.405Z,4.92
2018-03-07T03:05:16.362Z,4.84
2018-03-07T03:06:16.318Z,4.96
2018-03-07T03:07:16.279Z,4.92
2018-03-07T03:08:16.255Z,4.94
2018-03-07T03:09:16.189Z,4.86
2018-03-07T03:10:16.156Z,4.77
2018-03-07T03:11:16.108Z,4.72
2018-03-07T03:12:16.070Z,4.70
2018-03-07T03:13:16.056Z,4.70
2018-03-07T03:14:15.987Z,4.73
2018-03-07T03:15:15.939Z,4.72
2018-03-07T03:16:15.902Z,4.67
2018-03-07T03:17:15.857Z,4.67
2018-03-07T03:18:15.815Z,4.66
2018-03-07T03:19:15.832Z,4.55
2018-03-07T03:20:16.667Z,4.54
2018-03-07T03:21:15.687Z,4.54
2018-03-07T03:22:15.644Z,4.54
2018-03-07T03:23:15.608Z,4.58
2018-03-07T03:24:15.592Z,4.55
2018-03-07T03:25:15.523Z,4.55
2018-03-07T03:26:15.475Z,4.62
2018-03-07T03:27:15.433Z,4.50
2018-03-07T03:28:15.392Z,4.54
2018-03-07T03:29:15.379Z,4.50
2018-03-07T03:30:15.325Z,4.42
2018-03-07T03:31:15.272Z,4.36
2018-03-07T03:32:15.231Z,4.36
2018-03-07T03:33:15.228Z,4.29
2018-03-07T03:34:15.167Z,4.36
2018-03-07T03:35:15.094Z,4.26
2018-03-07T03:36:15.061Z,4.33
2018-03-07T03:37:15.011Z,4.37
2018-03-07T03:38:14.980Z,4.34
2018-03-07T03:39:14.961Z,4.27
2018-03-07T03:40:14.887Z,4.26
2018-03-07T03:41:14.842Z,4.29
2018-03-07T03:42:14.805Z,4.20
2018-03-07T03:43:14.765Z,4.30
2018-03-07T03:44:14.720Z,4.27
2018-03-07T03:45:14.699Z,4.27
2018-03-07T03:46:14.632Z,4.27
2018-03-07T03:47:14.590Z,4.18
2018-03-07T03:48:14.553Z,4.20
2018-03-07T03:49:14.511Z,4.16
2018-03-07T03:50:14.484Z,4.04
2018-03-07T03:51:14.425Z,4.09
2018-03-07T03:52:14.383Z,4.02
2018-03-07T03:53:14.338Z,4.09
2018-03-07T03:54:14.291Z,4.02
2018-03-07T03:55:14.279Z,3.94
2018-03-07T03:56:14.231Z,3.91
2018-03-07T03:57:14.162Z,3.90
2018-03-07T03:58:14.119Z,3.97
2018-03-07T03:59:14.623Z,3.96
2018-03-07T04:00:14.058Z,3.97
2018-03-07T04:01:13.989Z,3.88
2018-03-07T04:02:13.961Z,3.79
2018-03-07T04:03:13.907Z,3.79
2018-03-07T04:04:13.857Z,3.84
2018-03-07T04:05:13.849Z,3.76
2018-03-07T04:06:13.784Z,3.88
2018-03-07T04:07:13.744Z,3.88
2018-03-07T04:08:13.705Z,3.78
2018-03-07T04:09:13.682Z,3.83
2018-03-07T04:10:13.607Z,3.91
2018-03-07T04:11:13.588Z,3.91
2018-03-07T04:12:13.521Z,3.87
2018-03-07T04:13:13.482Z,3.87
2018-03-07T04:14:13.439Z,3.84
2018-03-07T04:15:13.416Z,3.87
2018-03-07T04:16:13.348Z,3.79
2018-03-07T04:17:13.311Z,3.60
2018-03-07T04:18:13.283Z,3.61
2018-03-07T04:19:13.215Z,3.68
2018-03-07T04:20:13.181Z,3.62
2018-03-07T04:21:13.160Z,3.62
2018-03-07T04:22:13.092Z,3.57
2018-03-07T04:23:13.052Z,3.62
2018-03-07T04:24:13.015Z,3.58
2018-03-07T04:25:12.962Z,3.57
2018-03-07T04:26:12.943Z,3.65
2018-03-07T04:27:12.879Z,3.62
2018-03-07T04:28:12.835Z,3.45
2018-03-07T04:29:12.797Z,3.50
2018-03-07T04:30:12.787Z,3.51
2018-03-07T04:31:12.725Z,3.47
2018-03-07T04:32:12.685Z,3.50
2018-03-07T04:33:12.628Z,3.48
2018-03-07T04:34:12.586Z,3.47
2018-03-07T04:35:12.537Z,3.36
2018-03-07T04:36:12.513Z,3.35
2018-03-07T04:37:12.444Z,3.35
2018-03-07T04:38:12.412Z,3.36
2018-03-07T04:39:12.364Z,3.33
2018-03-07T04:40:12.321Z,3.29
2018-03-07T04:41:12.301Z,3.29
2018-03-07T04:42:12.229Z,3.21
2018-03-07T04:43:12.186Z,3.28
2018-03-07T04:44:12.144Z,3.26
2018-03-07T04:45:12.107Z,3.20
2018-03-07T04:46:12.086Z,3.31
2018-03-07T04:47:12.014Z,3.21
2018-03-07T04:48:11.973Z,3.23
2018-03-07T04:49:11.933Z,3.18
2018-03-07T04:50:11.923Z,3.20
2018-03-07T04:51:11.860Z,3.08
2018-03-07T04:52:11.804Z,3.17
2018-03-07T04:53:11.754Z,3.15
2018-03-07T04:54:11.712Z,3.11
2018-03-07T04:55:11.674Z,3.08
2018-03-07T04:56:11.656Z,3.20
2018-03-07T04:57:11.580Z,3.18
2018-03-07T04:58:11.536Z,3.20
2018-03-07T04:59:11.509Z,3.20
2018-03-07T05:00:11.465Z,3.11
2018-03-07T05:01:11.445Z,3.10
2018-03-07T05:02:11.365Z,3.23
2018-03-07T05:03:11.320Z,3.10
2018-03-07T05:04:11.276Z,3.24
2018-03-07T05:05:11.235Z,3.21
2018-03-07T05:06:11.196Z,3.24
2018-03-07T05:07:11.183Z,3.33
2018-03-07T05:08:11.104Z,3.50
2018-03-07T05:09:11.071Z,3.43
2018-03-07T05:10:11.019Z,3.45
2018-03-07T05:11:10.982Z,3.35
2018-03-07T05:12:10.966Z,3.35
2018-03-07T05:13:10.897Z,3.36
2018-03-07T05:14:10.850Z,3.43
2018-03-07T05:15:10.867Z,3.43
2018-03-07T05:16:10.771Z,3.43
2018-03-07T05:17:10.749Z,3.40
2018-03-07T05:18:10.709Z,3.40
2018-03-07T05:19:10.634Z,3.54
2018-03-07T05:20:10.596Z,3.48
2018-03-07T05:21:10.545Z,3.42
2018-03-07T05:22:10.500Z,3.45
2018-03-07T05:23:10.487Z,3.36
2018-03-07T05:24:10.415Z,3.28
2018-03-07T05:25:10.377Z,3.29
2018-03-07T05:26:10.338Z,3.21
2018-03-07T05:27:10.283Z,3.20
2018-03-07T05:28:10.271Z,3.17
2018-03-07T05:29:10.209Z,3.23
2018-03-07T05:30:10.158Z,3.15
2018-03-07T05:31:10.117Z,3.18
2018-03-07T05:32:10.077Z,3.00
2018-03-07T05:33:10.055Z,3.03
2018-03-07T05:34:09.987Z,3.08
2018-03-07T05:35:09.943Z,3.11
2018-03-07T05:36:09.897Z,3.10
2018-03-07T05:37:09.857Z,3.14
2018-03-07T05:38:09.828Z,3.06
2018-03-07T05:39:09.761Z,3.00
2018-03-07T05:40:09.717Z,3.08
2018-03-07T05:41:09.682Z,3.06
2018-03-07T05:42:09.637Z,3.00
2018-03-07T05:43:09.639Z,3.03
2018-03-07T05:44:09.575Z,3.06
2018-03-07T05:45:09.511Z,3.08
2018-03-07T05:46:09.462Z,3.06
2018-03-07T05:47:09.413Z,3.10
2018-03-07T05:48:09.382Z,3.08
2018-03-07T05:49:09.355Z,3.03
2018-03-07T05:50:09.296Z,3.03
2018-03-07T05:51:09.304Z,2.93
2018-03-07T05:52:09.197Z,2.99
2018-03-07T05:53:09.154Z,2.97
2018-03-07T05:54:09.137Z,3.02
2018-03-07T05:55:09.070Z,3.06
2018-03-07T05:56:09.031Z,2.97
2018-03-07T05:57:08.989Z,3.03
2018-03-07T05:58:08.943Z,2.85
2018-03-07T05:59:08.921Z,2.85
2018-03-07T06:00:08.913Z,2.87
2018-03-07T06:01:08.809Z,2.90
2018-03-07T06:02:08.773Z,2.84
2018-03-07T06:03:08.720Z,2.93
2018-03-07T06:04:08.702Z,2.84
2018-03-07T06:05:08.638Z,2.87
2018-03-07T06:06:08.598Z,2.87
2018-03-07T06:07:08.554Z,2.89
2018-03-07T06:08:08.540Z,2.77
2018-03-07T06:09:08.483Z,2.78
2018-03-07T06:10:08.461Z,2.75
2018-03-07T06:11:08.372Z,2.77
2018-03-07T06:12:08.340Z,2.77
2018-03-07T06:13:08.324Z,2.82
2018-03-07T06:14:08.247Z,2.75
2018-03-07T06:15:08.240Z,2.79
2018-03-07T06:16:08.152Z,2.82
2018-03-07T06:17:08.110Z,2.90
2018-03-07T06:18:08.087Z,3.06
2018-03-07T06:19:08.025Z,3.03
2018-03-07T06:20:08.011Z,3.06
2018-03-07T06:21:07.937Z,3.21
2018-03-07T06:22:07.922Z,3.31
2018-03-07T06:23:07.846Z,3.26
2018-03-07T06:24:07.816Z,3.20
2018-03-07T06:25:07.784Z,3.14
2018-03-07T06:26:07.726Z,3.10
2018-03-07T06:27:07.673Z,3.13
2018-03-07T06:28:07.637Z,3.08
2018-03-07T06:29:07.589Z,3.13
2018-03-07T06:30:07.573Z,3.21
2018-03-07T06:31:07.501Z,3.11
2018-03-07T06:32:07.497Z,3.20
2018-03-07T06:33:07.420Z,3.18
2018-03-07T06:34:07.394Z,3.26
2018-03-07T06:35:07.351Z,3.18
2018-03-07T06:36:07.291Z,3.31
2018-03-07T06:37:07.240Z,3.35
2018-03-07T06:38:07.243Z,3.48
2018-03-07T06:39:07.159Z,3.47
2018-03-07T06:40:07.122Z,3.57
2018-03-07T06:41:07.115Z,3.66
2018-03-07T06:42:07.025Z,3.68
2018-03-07T06:43:06.979Z,3.91
2018-03-07T06:44:06.986Z,4.24
2018-03-07T06:45:06.918Z,4.73
2018-03-07T06:46:06.857Z,4.85
2018-03-07T06:47:06.812Z,4.97
2018-03-07T06:48:06.765Z,5.13
2018-03-07T06:49:06.720Z,5.42
2018-03-07T06:50:06.696Z,5.43
2018-03-07T06:51:06.632Z,5.43
2018-03-07T06:52:06.593Z,5.42
2018-03-07T06:53:06.549Z,5.71
2018-03-07T06:54:06.542Z,6.18
2018-03-07T06:55:06.507Z,6.40
2018-03-07T06:56:06.427Z,6.41
2018-03-07T06:57:06.380Z,6.27
2018-03-07T06:58:06.334Z,6.25
2018-03-07T06:59:06.299Z,6.30
2018-03-07T07:00:06.280Z,6.31
2018-03-07T07:01:06.212Z,6.43
2018-03-07T07:02:06.168Z,6.54
2018-03-07T07:03:06.129Z,6.69
2018-03-07T07:04:06.093Z,6.59
2018-03-07T07:05:06.052Z,6.97
2018-03-07T07:06:06.026Z,7.34
2018-03-07T07:07:05.964Z,7.40
2018-03-07T07:08:05.931Z,7.83
2018-03-07T07:09:05.886Z,8.18
2018-03-07T07:10:05.847Z,8.65
2018-03-07T07:11:05.823Z,8.95
2018-03-07T07:12:05.748Z,9.13
2018-03-07T07:13:05.715Z,9.17
2018-03-07T07:14:05.670Z,9.26
2018-03-07T07:15:05.630Z,9.14
2018-03-07T07:16:05.613Z,9.38
2018-03-07T07:17:05.549Z,9.46
2018-03-07T07:18:05.528Z,9.21
2018-03-07T07:19:05.473Z,9.61
2018-03-07T07:20:05.441Z,10.14
2018-03-07T07:21:05.444Z,10.02
2018-03-07T07:22:05.384Z,10.33
2018-03-07T07:23:05.313Z,10.52
2018-03-07T07:24:05.278Z,10.97
2018-03-07T07:25:05.236Z,11.19
2018-03-07T07:26:05.192Z,11.32
2018-03-07T07:27:05.181Z,10.68
2018-03-07T07:28:05.124Z,9.64
2018-03-07T07:29:05.080Z,9.20
2018-03-07T07:30:05.045Z,9.26
2018-03-07T07:31:05.008Z,9.58
2018-03-07T07:32:04.992Z,9.66
2018-03-07T07:33:04.933Z,9.66
2018-03-07T07:34:04.893Z,9.78
2018-03-07T07:35:04.869Z,9.86
2018-03-07T07:36:04.813Z,9.71
2018-03-07T07:37:04.799Z,9.87
2018-03-07T07:38:04.744Z,10.26
2018-03-07T07:39:04.697Z,9.96
2018-03-07T07:40:04.663Z,10.25
2018-03-07T07:41:04.620Z,10.42
2018-03-07T07:42:04.610Z,10.76
2018-03-07T07:43:04.543Z,11.07
2018-03-07T07:44:04.509Z,11.11
2018-03-07T07:45:04.472Z,11.02
2018-03-07T07:46:04.447Z,10.32
2018-03-07T07:47:04.396Z,10.38
2018-03-07T07:48:04.385Z,10.63
2018-03-07T07:49:04.331Z,10.79
2018-03-07T07:50:04.277Z,10.74
2018-03-07T07:51:04.246Z,10.63
2018-03-07T07:52:04.212Z,10.73
2018-03-07T07:53:04.188Z,10.84
2018-03-07T07:54:04.135Z,10.96
2018-03-07T07:55:04.152Z,11.25
2018-03-07T07:56:04.067Z,11.42
2018-03-07T07:57:04.026Z,11.29
2018-03-07T07:58:04.005Z,11.11
2018-03-07T07:59:03.948Z,11.29
2018-03-07T08:00:03.908Z,11.21
2018-03-07T08:01:03.871Z,11.28
2018-03-07T08:02:03.861Z,11.46
2018-03-07T08:03:03.830Z,11.11
2018-03-07T08:04:03.765Z,10.89
2018-03-07T08:05:03.725Z,10.96
2018-03-07T08:06:03.689Z,11.24
2018-03-07T08:07:03.650Z,11.42
2018-03-07T08:08:03.614Z,11.57
2018-03-07T08:09:03.598Z,11.22
2018-03-07T08:10:03.547Z,11.06
2018-03-07T08:11:03.511Z,11.33
2018-03-07T08:12:03.490Z,11.46
2018-03-07T08:13:03.436Z,11.80
2018-03-07T08:14:03.424Z,11.75
2018-03-07T08:15:03.363Z,11.91
2018-03-07T08:16:03.332Z,12.17
2018-03-07T08:17:03.298Z,12.19
2018-03-07T08:18:03.255Z,12.05
2018-03-07T08:19:03.241Z,12.10
2018-03-07T08:20:03.177Z,11.98
2018-03-07T08:21:03.151Z,11.15
2018-03-07T08:22:03.115Z,10.94
2018-03-07T08:23:03.077Z,11.10
2018-03-07T08:24:03.055Z,11.39
2018-03-07T08:25:03.009Z,11.27
2018-03-07T08:26:02.982Z,11.42
2018-03-07T08:27:02.934Z,11.24
2018-03-07T08:28:02.891Z,10.99
2018-03-07T08:29:02.885Z,10.78
2018-03-07T08:30:02.826Z,10.73
2018-03-07T08:31:02.783Z,10.51
2018-03-07T08:32:02.758Z,10.40
2018-03-07T08:33:02.719Z,10.78
2018-03-07T08:34:02.686Z,10.96
2018-03-07T08:35:02.667Z,11.25
2018-03-07T08:36:02.606Z,10.97
2018-03-07T08:37:02.579Z,10.99
2018-03-07T08:38:02.533Z,11.15
2018-03-07T08:39:02.508Z,11.32
2018-03-07T08:40:02.486Z,11.57
2018-03-07T08:41:02.436Z,11.75
2018-03-07T08:42:02.391Z,12.28
2018-03-07T08:43:02.365Z,12.83
2018-03-07T08:44:02.316Z,12.56
2018-03-07T08:45:02.310Z,12.82
2018-03-07T08:46:02.288Z,12.41
2018-03-07T08:47:02.228Z,12.27
2018-03-07T08:48:02.189Z,12.42
2018-03-07T08:49:02.148Z,12.54
2018-03-07T08:50:02.136Z,12.65
2018-03-07T08:51:02.079Z,12.71
2018-03-07T08:52:02.057Z,12.89
2018-03-07T08:53:02.047Z,13.32
2018-03-07T08:54:01.975Z,13.73
2018-03-07T08:55:01.966Z,14.07
2018-03-07T08:56:01.908Z,14.06
2018-03-07T08:57:01.921Z,14.07
2018-03-07T08:58:01.840Z,14.18
2018-03-07T08:59:01.804Z,14.27
2018-03-07T09:00:01.777Z,14.43
2018-03-07T09:01:01.762Z,14.45
2018-03-07T09:02:01.709Z,13.60
2018-03-07T09:03:01.669Z,13.73
2018-03-07T09:04:02.220Z,13.71
2018-03-07T09:05:01.602Z,13.59
2018-03-07T09:06:01.600Z,13.91
2018-03-07T09:07:01.536Z,13.84
2018-03-07T09:08:01.511Z,14.28
2018-03-07T09:09:01.476Z,14.14
2018-03-07T09:10:01.444Z,14.24
2018-03-07T09:11:01.467Z,14.04
2018-03-07T09:12:01.372Z,13.96
2018-03-07T09:13:01.343Z,13.82
2018-03-07T09:14:01.320Z,14.02
2018-03-07T09:15:01.280Z,13.48
2018-03-07T09:16:01.279Z,13.59
2018-03-07T09:17:01.215Z,13.96
2018-03-07T09:18:01.184Z,14.25
2018-03-07T09:19:01.151Z,13.91
2018-03-07T09:20:01.126Z,13.67
2018-03-07T09:21:01.127Z,13.20
2018-03-07T09:22:01.061Z,13.01
2018-03-07T09:23:01.034Z,12.90
2018-03-07T09:24:00.992Z,12.24
2018-03-07T09:25:00.960Z,11.98
2018-03-07T09:26:00.927Z,11.96
2018-03-07T09:27:00.914Z,12.07
2018-03-07T09:28:00.860Z,12.56
2018-03-07T09:29:00.869Z,13.08
2018-03-07T09:30:00.798Z,12.93
2018-03-07T09:31:00.768Z,12.54
2018-03-07T09:32:00.750Z,12.13
2018-03-07T09:33:00.697Z,11.98
2018-03-07T09:34:00.662Z,11.95
2018-03-07T09:35:00.654Z,12.12
2018-03-07T09:36:00.591Z,12.20
2018-03-07T09:37:00.583Z,12.56
2018-03-07T09:38:00.524Z,12.21
2018-03-07T09:39:00.499Z,11.88
2018-03-07T09:40:00.466Z,11.54
2018-03-07T09:41:00.429Z,11.06
2018-03-07T09:42:00.416Z,11.24
2018-03-07T09:43:00.358Z,11.17
2018-03-07T09:44:00.319Z,11.14
2018-03-07T09:45:00.305Z,10.97
2018-03-07T09:46:00.251Z,11.02
2018-03-07T09:47:00.224Z,10.63
2018-03-07T09:48:00.214Z,10.63
2018-03-07T09:49:00.142Z,10.63
2018-03-07T09:50:00.119Z,10.70
2018-03-07T09:51:00.081Z,10.60
2018-03-07T09:52:00.071Z,10.47
2018-03-07T09:53:00.022Z,10.55
2018-03-07T09:53:59.966Z,10.85
2018-03-07T09:54:59.932Z,10.79
2018-03-07T09:55:59.894Z,10.79
2018-03-07T09:56:59.870Z,11.22
2018-03-07T09:57:59.844Z,12.04
2018-03-07T09:58:59.786Z,12.28
2018-03-07T09:59:59.755Z,12.96
2018-03-07T10:00:59.720Z,13.01
2018-03-07T10:01:59.707Z,12.70
2018-03-07T10:02:59.672Z,12.28
2018-03-07T10:03:59.614Z,12.17
2018-03-07T10:04:59.575Z,12.04
2018-03-07T10:05:59.543Z,12.45
2018-03-07T10:06:59.502Z,12.82
2018-03-07T10:07:59.543Z,12.87
2018-03-07T10:08:59.435Z,12.52
2018-03-07T10:09:59.409Z,12.46
2018-03-07T10:10:59.365Z,12.67
2018-03-07T10:11:59.333Z,12.93
2018-03-07T10:12:59.308Z,13.04
2018-03-07T10:13:59.293Z,12.56
2018-03-07T10:14:59.233Z,12.89
2018-03-07T10:15:59.233Z,12.79
2018-03-07T10:16:59.192Z,12.70
2018-03-07T10:17:59.199Z,12.41
2018-03-07T10:18:59.124Z,11.79
2018-03-07T10:19:59.080Z,11.58
2018-03-07T10:20:59.038Z,11.46
2018-03-07T10:21:59.004Z,11.72
2018-03-07T10:22:58.983Z,11.62
2018-03-07T10:23:58.936Z,11.58
2018-03-07T10:24:58.923Z,11.43
2018-03-07T10:25:58.867Z,10.99
2018-03-07T10:26:58.836Z,10.79
2018-03-07T10:27:58.835Z,10.52
2018-03-07T10:28:58.761Z,10.34
2018-03-07T10:29:58.742Z,10.30
2018-03-07T10:30:58.726Z,10.48
2018-03-07T10:31:58.668Z,10.32
2018-03-07T10:32:58.662Z,10.33
2018-03-07T10:33:58.599Z,10.44
2018-03-07T10:34:58.561Z,10.40
2018-03-07T10:35:58.547Z,10.22
2018-03-07T10:36:58.489Z,10.14
2018-03-07T10:37:58.487Z,10.20
2018-03-07T10:38:58.416Z,10.20
2018-03-07T10:39:58.374Z,10.23
2018-03-07T10:40:58.361Z,10.23
2018-03-07T10:41:58.307Z,10.08
2018-03-07T10:42:58.274Z,10.17
2018-03-07T10:43:58.238Z,9.99
2018-03-07T10:44:58.201Z,10.04
2018-03-07T10:45:58.188Z,10.05
2018-03-07T10:46:58.125Z,9.93
2018-03-07T10:47:58.136Z,9.94
2018-03-07T10:48:58.054Z,9.86
2018-03-07T10:49:58.035Z,9.86
2018-03-07T10:50:57.999Z,9.76
2018-03-07T10:51:57.948Z,9.47
2018-03-07T10:52:57.914Z,9.38
2018-03-07T10:53:57.865Z,9.21
2018-03-07T10:54:57.827Z,9.17
2018-03-07T10:55:57.795Z,9.11
2018-03-07T10:56:57.771Z,9.15
2018-03-07T10:57:57.766Z,8.96
2018-03-07T10:58:57.680Z,9.01
2018-03-07T10:59:57.648Z,8.96
2018-03-07T11:00:57.617Z,9.02
2018-03-07T11:01:57.584Z,8.98
2018-03-07T11:02:57.530Z,9.02
2018-03-07T11:03:57.483Z,8.98
2018-03-07T11:04:57.452Z,8.99
2018-03-07T11:05:57.408Z,9.05
2018-03-07T11:06:57.402Z,9.14
2018-03-07T11:07:58.264Z,9.15
2018-03-07T11:08:57.292Z,9.21
2018-03-07T11:09:57.283Z,9.28
2018-03-07T11:10:57.218Z,9.18
2018-03-07T11:11:57.207Z,9.31
2018-03-07T11:12:57.151Z,9.39
2018-03-07T11:13:57.160Z,9.38
2018-03-07T11:14:57.068Z,9.42
2018-03-07T11:15:57.044Z,9.36
2018-03-07T11:16:57.011Z,9.33
2018-03-07T11:17:56.951Z,9.35
2018-03-07T11:18:56.906Z,9.32
2018-03-07T11:19:56.872Z,9.20
2018-03-07T11:20:56.833Z,9.13
2018-03-07T11:21:56.815Z,9.01
2018-03-07T11:22:56.776Z,8.73
2018-03-07T11:23:56.710Z,8.63
2018-03-07T11:24:56.673Z,8.61
2018-03-07T11:25:56.640Z,8.59
2018-03-07T11:26:56.598Z,8.62
2018-03-07T11:27:56.616Z,8.59
2018-03-07T11:28:56.525Z,8.58
2018-03-07T11:29:56.479Z,8.62
2018-03-07T11:30:56.439Z,8.66
2018-03-07T11:31:56.398Z,8.59
2018-03-07T11:32:56.393Z,8.62
2018-03-07T11:33:56.324Z,8.41
2018-03-07T11:34:56.282Z,8.45
2018-03-07T11:35:56.250Z,8.61
2018-03-07T11:36:56.205Z,8.45
2018-03-07T11:37:56.315Z,8.44
2018-03-07T11:38:56.130Z,8.41
2018-03-07T11:39:56.093Z,8.41
2018-03-07T11:40:56.051Z,8.45
2018-03-07T11:41:56.002Z,8.30
2018-03-07T11:42:55.970Z,8.26
2018-03-07T11:43:55.947Z,8.25
2018-03-07T11:44:55.885Z,8.23
2018-03-07T11:45:55.848Z,8.16
2018-03-07T11:46:55.810Z,8.23
2018-03-07T11:47:56.706Z,8.29
2018-03-07T11:48:55.754Z,8.29
2018-03-07T11:49:55.692Z,8.33
2018-03-07T11:50:55.647Z,8.28
2018-03-07T11:51:55.606Z,8.12
2018-03-07T11:52:55.571Z,8.07
2018-03-07T11:53:55.556Z,8.16
2018-03-07T11:54:55.481Z,8.16
2018-03-07T11:55:55.444Z,8.16
2018-03-07T11:56:55.409Z,8.19
2018-03-07T11:57:55.387Z,8.22
2018-03-07T11:58:55.359Z,8.10
2018-03-07T11:59:55.289Z,8.04
2018-03-07T12:00:55.261Z,8.07
2018-03-07T12:01:55.225Z,8.05
2018-03-07T12:02:55.176Z,8.05
2018-03-07T12:03:55.132Z,8.18
2018-03-07T12:04:55.106Z,8.15
2018-03-07T12:05:55.041Z,8.15
2018-03-07T12:06:55.007Z,8.29
2018-03-07T12:07:55.015Z,8.25
2018-03-07T12:08:54.924Z,8.26
2018-03-07T12:09:54.921Z,8.30
2018-03-07T12:10:54.854Z,8.25
2018-03-07T12:11:54.804Z,8.28
2018-03-07T12:12:54.762Z,8.37
2018-03-07T12:13:54.763Z,8.34
2018-03-07T12:14:54.719Z,8.36
2018-03-07T12:15:54.654Z,8.36
2018-03-07T12:16:54.620Z,8.43
2018-03-07T12:17:54.570Z,8.36
2018-03-07T12:18:54.534Z,8.45
2018-03-07T12:19:54.519Z,8.30
2018-03-07T12:20:54.449Z,8.18
2018-03-07T12:21:54.404Z,8.08
2018-03-07T12:22:54.370Z,8.18
2018-03-07T12:23:54.329Z,8.22
2018-03-07T12:24:54.318Z,8.10
2018-03-07T12:25:54.251Z,8.11
2018-03-07T12:26:54.679Z,8.16
2018-03-07T12:27:54.220Z,8.26
2018-03-07T12:28:54.124Z,8.22
2018-03-07T12:29:54.086Z,8.28
2018-03-07T12:30:54.067Z,8.28
2018-03-07T12:31:54.012Z,8.30
2018-03-07T12:32:54.041Z,8.25
2018-03-07T12:33:53.932Z,8.33
2018-03-07T12:34:53.891Z,8.16
2018-03-07T12:35:53.883Z,8.12
2018-03-07T12:36:53.810Z,8.30
2018-03-07T12:37:53.773Z,8.36
2018-03-07T12:38:53.725Z,8.40
2018-03-07T12:39:53.683Z,8.48
2018-03-07T12:40:53.666Z,8.47
2018-03-07T12:41:53.618Z,8.52
2018-03-07T12:42:53.577Z,8.52
2018-03-07T12:43:53.568Z,8.48
2018-03-07T12:44:53.485Z,8.55
2018-03-07T12:45:53.471Z,8.47
2018-03-07T12:46:53.417Z,8.43
2018-03-07T12:47:53.371Z,8.48
2018-03-07T12:48:53.330Z,8.55
2018-03-07T12:49:53.286Z,8.62
2018-03-07T12:50:53.253Z,8.61
2018-03-07T12:51:53.233Z,8.63
2018-03-07T12:52:53.165Z,8.65
2018-03-07T12:53:53.139Z,8.71
2018-03-07T12:54:53.087Z,8.74
2018-03-07T12:55:53.055Z,8.70
2018-03-07T12:56:53.038Z,8.80
2018-03-07T12:57:53.685Z,8.92
2018-03-07T12:58:52.932Z,8.89
2018-03-07T12:59:52.907Z,8.92
2018-03-07T13:00:52.898Z,9.01
2018-03-07T13:01:52.842Z,9.14
2018-03-07T13:02:52.784Z,9.26
2018-03-07T13:03:52.737Z,9.36
2018-03-07T13:04:52.691Z,9.60
2018-03-07T13:05:52.653Z,9.60
2018-03-07T13:06:52.640Z,9.75
2018-03-07T13:07:52.599Z,9.99
2018-03-07T13:08:52.539Z,10.09
2018-03-07T13:09:52.506Z,10.09
2018-03-07T13:10:52.463Z,10.12